createdAt,value
2022-08-04T00:00:14.449Z,101342.13
2022-08-04T00:03:16.177Z,101344.34
2022-08-04T00:06:00.144Z,101340.16
2022-08-04T00:08:37.268Z,101347.34
2022-08-04T00:11:04.326Z,101348.44
2022-08-04T00:13:37.094Z,101339.34
2022-08-04T00:16:24.345Z,101334.66
2022-08-04T00:19:04.731Z,101340.53
2022-08-04T00:21:36.530Z,101336.91
2022-08-04T00:24:10.574Z,101330.47
2022-08-04T00:26:39.816Z,101338.59
2022-08-04T00:29:06.434Z,101332.22
2022-08-04T00:31:56.814Z,101337.78
2022-08-04T00:34:21.250Z,101324.56
2022-08-04T00:36:48.005Z,101326.09
2022-08-04T00:39:19.535Z,101328.41
2022-08-04T00:42:11.818Z,101321.53
2022-08-04T00:45:06.294Z,101324.78
2022-08-04T00:47:50.974Z,101317.63
2022-08-04T00:50:52.217Z,101318.63
2022-08-04T00:53:50.007Z,101319.25
2022-08-04T00:56:41.648Z,101322.31
2022-08-04T00:59:22.970Z,101323.19
2022-08-04T01:01:58.972Z,101312.59
2022-08-04T01:04:28.190Z,101310.66
2022-08-04T01:07:23.221Z,101312.56
2022-08-04T01:10:04.902Z,101303.13
2022-08-04T01:12:58.681Z,101309.69
2022-08-04T01:15:53.854Z,101311.19
2022-08-04T01:18:48.296Z,101307.59
2022-08-04T01:21:31.358Z,101296.88
2022-08-04T01:24:30.182Z,101302.06
2022-08-04T01:27:03.823Z,101296.53
2022-08-04T01:29:56.347Z,101296.28
2022-08-04T01:32:31.817Z,101297.72
2022-08-04T01:35:08.190Z,101287.16
2022-08-04T01:38:18.366Z,101298.28
2022-08-04T01:40:51.793Z,101288.31
2022-08-04T01:43:19.735Z,101297.13
2022-08-04T01:45:50.718Z,101285.84
2022-08-04T01:48:23.014Z,101286.56
2022-08-04T01:50:53.473Z,101288.78
2022-08-04T01:53:21.413Z,101282.72
2022-08-04T01:55:54.692Z,101282.78
2022-08-04T01:58:24.253Z,101284.47
2022-08-04T02:00:59.743Z,101279.50
2022-08-04T02:04:18.242Z,101274.56
2022-08-04T02:06:34.224Z,101285.63
2022-08-04T02:09:06.677Z,101277.31
2022-08-04T02:11:33.239Z,101283.16
2022-08-04T02:14:14.083Z,101272.94
2022-08-04T02:16:52.745Z,101271.56
2022-08-04T02:19:32.556Z,101265.78
2022-08-04T02:22:13.600Z,101265.84
2022-08-04T02:24:51.168Z,101260.09
2022-08-04T02:27:25.162Z,101261.75
2022-08-04T02:30:00.132Z,101270.63
2022-08-04T02:32:30.306Z,101255.03
2022-08-04T02:35:12.066Z,101260.91
2022-08-04T02:37:44.389Z,101258.69
2022-08-04T02:40:13.055Z,101253.72
2022-08-04T02:42:39.553Z,101260.91
2022-08-04T02:45:07.622Z,101255.94
2022-08-04T02:48:23.666Z,101252.06
2022-08-04T02:50:28.855Z,101247.09
2022-08-04T02:53:00.663Z,101244.03
2022-08-04T02:55:29.626Z,101244.84
2022-08-04T02:58:01.998Z,101254.53
2022-08-04T03:00:29.288Z,101244.03
2022-08-04T03:03:12.988Z,101246.28
2022-08-04T03:06:11.998Z,101235.53
2022-08-04T03:08:56.867Z,101231.91
2022-08-04T03:11:50.803Z,101234.41
2022-08-04T03:14:50.943Z,101238.84
2022-08-04T03:17:53.137Z,101234.47
2022-08-04T03:20:55.423Z,101236.19
2022-08-04T03:23:40.393Z,101236.78
2022-08-04T03:26:48.803Z,101234.81
2022-08-04T03:29:43.583Z,101234.88
2022-08-04T03:32:37.603Z,101230.53
2022-08-04T03:35:22.901Z,101227.00
2022-08-04T03:38:00.496Z,101221.47
2022-08-04T03:40:39.340Z,101227.56
2022-08-04T03:43:57.014Z,101218.97
2022-08-04T03:46:26.240Z,101223.59
2022-08-04T03:49:05.026Z,101224.72
2022-08-04T03:51:50.351Z,101221.97
2022-08-04T03:54:33.407Z,101215.31
2022-08-04T03:57:22.405Z,101227.75
2022-08-04T04:00:10.846Z,101220.31
2022-08-04T04:03:13.636Z,101216.19
2022-08-04T04:06:15.156Z,101221.72
2022-08-04T04:08:42.649Z,101222.50
2022-08-04T04:11:32.845Z,101217.28
2022-08-04T04:14:05.346Z,101218.34
2022-08-04T04:17:04.309Z,101216.09
2022-08-04T04:19:58.372Z,101214.94
2022-08-04T04:23:03.769Z,101219.59
2022-08-04T04:25:58.554Z,101215.09
2022-08-04T04:29:01.569Z,101217.25
2022-08-04T04:32:10.424Z,101218.91
2022-08-04T04:35:07.625Z,101216.66
2022-08-04T04:37:48.842Z,101210.53
2022-08-04T04:40:40.429Z,101216.06
2022-08-04T04:43:51.087Z,101213.69
2022-08-04T04:46:39.433Z,101212.53
2022-08-04T04:49:20.670Z,101207.00
2022-08-04T04:52:06.511Z,101209.63
2022-08-04T04:55:13.650Z,101211.56
2022-08-04T04:57:53.791Z,101207.28
2022-08-04T05:00:25.078Z,101195.03
2022-08-04T05:03:23.702Z,101195.94
2022-08-04T05:06:05.517Z,101205.50
2022-08-04T05:08:56.668Z,101198.63
2022-08-04T05:11:35.189Z,101202.28
2022-08-04T05:14:37.890Z,101195.25
2022-08-04T05:17:29.843Z,101202.78
2022-08-04T05:20:14.952Z,101202.41
2022-08-04T05:23:08.891Z,101204.88
2022-08-04T05:25:59.281Z,101196.00
2022-08-04T05:28:32.453Z,101197.56
2022-08-04T05:31:21.643Z,101196.22
2022-08-04T05:33:53.868Z,101195.25
2022-08-04T05:36:39.911Z,101189.69
2022-08-04T05:39:13.265Z,101189.56
2022-08-04T05:41:45.241Z,101192.84
2022-08-04T05:44:15.087Z,101189.00
2022-08-04T05:46:43.863Z,101192.53
2022-08-04T05:49:12.735Z,101185.00
2022-08-04T05:51:46.668Z,101178.13
2022-08-04T05:54:15.313Z,101184.00
2022-08-04T05:56:43.032Z,101181.31
2022-08-04T05:59:11.374Z,101174.00
2022-08-04T06:01:55.986Z,101178.13
2022-08-04T06:04:34.160Z,101177.25
2022-08-04T06:07:00.832Z,101179.44
2022-08-04T06:09:27.692Z,101178.19
2022-08-04T06:12:03.470Z,101170.69
2022-08-04T06:14:38.231Z,101172.19
2022-08-04T06:18:34.030Z,101178.44
2022-08-04T06:19:58.985Z,101172.34
2022-08-04T06:22:30.304Z,101178.53
2022-08-04T06:24:58.979Z,101177.59
2022-08-04T06:27:26.769Z,101177.44
2022-08-04T06:29:54.785Z,101176.03
2022-08-04T06:32:35.633Z,101169.06
2022-08-04T06:35:07.470Z,101180.31
2022-08-04T06:37:42.346Z,101173.34
2022-08-04T06:40:31.701Z,101172.38
2022-08-04T06:43:05.854Z,101168.84
2022-08-04T06:45:35.846Z,101170.19
2022-08-04T06:48:05.123Z,101170.72
2022-08-04T06:51:24.794Z,101172.06
2022-08-04T06:53:20.978Z,101169.50
2022-08-04T06:55:49.202Z,101166.84
2022-08-04T06:58:16.953Z,101170.94
2022-08-04T07:00:45.631Z,101165.81
2022-08-04T07:03:13.407Z,101159.91
2022-08-04T07:05:41.033Z,101158.22
2022-08-04T07:08:10.498Z,101159.16
2022-08-04T07:10:37.406Z,101166.63
2022-08-04T07:13:04.350Z,101159.31
2022-08-04T07:15:32.985Z,101156.25
2022-08-04T07:18:01.906Z,101158.56
2022-08-04T07:20:34.002Z,101160.00
2022-08-04T07:23:04.168Z,101163.09
2022-08-04T07:26:00.463Z,101168.28
2022-08-04T07:28:17.721Z,101157.78
2022-08-04T07:30:45.244Z,101156.28
2022-08-04T07:33:12.285Z,101159.75
2022-08-04T07:36:03.810Z,101157.88
2022-08-04T07:38:27.541Z,101151.22
2022-08-04T07:40:55.262Z,101158.34
2022-08-04T07:43:22.857Z,101160.00
2022-08-04T07:45:49.723Z,101166.22
2022-08-04T07:48:18.821Z,101164.13
2022-08-04T07:50:46.833Z,101170.31
2022-08-04T07:53:53.985Z,101169.44
2022-08-04T07:56:02.714Z,101169.38
2022-08-04T07:58:30.292Z,101165.19
2022-08-04T08:00:58.157Z,101160.88
2022-08-04T08:03:26.539Z,101165.72
2022-08-04T08:06:18.129Z,101169.63
2022-08-04T08:08:40.282Z,101160.88
2022-08-04T08:11:07.862Z,101156.34
2022-08-04T08:13:35.153Z,101146.91
2022-08-04T08:16:02.532Z,101149.38
2022-08-04T08:18:30.398Z,101147.44
2022-08-04T08:20:57.601Z,101146.41
2022-08-04T08:23:26.040Z,101143.94
2022-08-04T08:25:52.785Z,101137.31
2022-08-04T08:28:19.488Z,101147.00
2022-08-04T08:30:46.050Z,101147.91
2022-08-04T08:33:20.768Z,101134.84
2022-08-04T08:36:03.631Z,101146.75
2022-08-04T08:38:47.570Z,101134.41
2022-08-04T08:41:23.566Z,101132.09
2022-08-04T08:44:07.163Z,101134.63
2022-08-04T08:46:52.000Z,101126.28
2022-08-04T08:50:02.564Z,101126.97
2022-08-04T08:53:01.333Z,101122.63
2022-08-04T08:55:39.805Z,101129.56
2022-08-04T08:58:15.155Z,101123.78
2022-08-04T09:01:03.709Z,101124.28
2022-08-04T09:04:08.819Z,101116.38
2022-08-04T09:06:43.820Z,101120.22
2022-08-04T09:09:34.933Z,101122.63
2022-08-04T09:12:20.082Z,101112.41
2022-08-04T09:15:10.238Z,101115.16
2022-08-04T09:17:47.369Z,101107.06
2022-08-04T09:20:28.834Z,101116.78
2022-08-04T09:23:14.011Z,101108.88
2022-08-04T09:26:18.455Z,101109.56
2022-08-04T09:28:54.502Z,101114.75
2022-08-04T09:31:27.343Z,101098.25
2022-08-04T09:34:38.785Z,101105.75
2022-08-04T09:37:15.186Z,101109.53
2022-08-04T09:40:31.471Z,101119.44
2022-08-04T09:43:17.165Z,101107.97
2022-08-04T09:45:56.973Z,101111.41
2022-08-04T09:48:40.898Z,101107.44
2022-08-04T09:51:57.765Z,101105.09
2022-08-04T09:54:49.194Z,101097.22
2022-08-04T09:57:31.349Z,101096.22
2022-08-04T10:00:16.591Z,101099.44
2022-08-04T10:02:49.477Z,101089.41
2022-08-04T10:05:21.729Z,101088.03
2022-08-04T10:08:15.508Z,101081.13
2022-08-04T10:11:07.948Z,101091.19
2022-08-04T10:14:05.619Z,101087.56
2022-08-04T10:16:47.523Z,101081.97
2022-08-04T10:19:27.999Z,101078.84
2022-08-04T10:22:29.556Z,101082.63
2022-08-04T10:26:03.686Z,101075.19
2022-08-04T10:27:58.860Z,101076.66
2022-08-04T10:30:28.566Z,101074.63
2022-08-04T10:33:09.111Z,101075.81
2022-08-04T10:35:44.775Z,101063.28
2022-08-04T10:38:13.283Z,101068.59
2022-08-04T10:40:46.862Z,101064.13
2022-08-04T10:43:25.557Z,101063.19
2022-08-04T10:46:05.657Z,101055.66
2022-08-04T10:48:54.300Z,101051.41
2022-08-04T10:51:58.713Z,101047.84
2022-08-04T10:54:47.515Z,101050.97
2022-08-04T10:57:23.746Z,101042.56
2022-08-04T11:00:03.810Z,101046.75
2022-08-04T11:02:45.230Z,101034.28
2022-08-04T11:05:24.041Z,101042.72
2022-08-04T11:07:55.435Z,101047.44
2022-08-04T11:10:25.722Z,101045.16
2022-08-04T11:12:59.545Z,101043.28
2022-08-04T11:15:34.477Z,101031.16
2022-08-04T11:18:17.066Z,101032.47
2022-08-04T11:20:53.014Z,101027.19
2022-08-04T11:23:26.689Z,101025.72
2022-08-04T11:26:00.018Z,101032.88
2022-08-04T11:29:04.111Z,101028.84
2022-08-04T11:31:42.057Z,101026.59
2022-08-04T11:34:24.923Z,101025.78
2022-08-04T11:37:05.163Z,101028.56
2022-08-04T11:39:48.940Z,101032.09
2022-08-04T11:42:31.093Z,101027.34
2022-08-04T11:45:11.255Z,101034.66
2022-08-04T11:47:48.380Z,101029.06
2022-08-04T11:50:22.212Z,101024.34
2022-08-04T11:52:53.382Z,101030.00
2022-08-04T11:55:22.421Z,101025.50
2022-08-04T11:57:54.303Z,101026.38
2022-08-04T12:00:22.845Z,101026.28
2022-08-04T12:02:52.096Z,101025.44
2022-08-04T12:05:42.027Z,101025.03
2022-08-04T12:08:40.667Z,101013.66
2022-08-04T12:11:10.129Z,101022.91
2022-08-04T12:13:46.079Z,101019.22
2022-08-04T12:16:30.258Z,101018.28
2022-08-04T12:19:18.635Z,101015.00
2022-08-04T12:21:53.284Z,101015.50
2022-08-04T12:24:31.102Z,101012.41
2022-08-04T12:27:04.742Z,101011.63
2022-08-04T12:29:34.670Z,101011.66
2022-08-04T12:32:08.248Z,101011.22
2022-08-04T12:34:43.523Z,101006.06
2022-08-04T12:37:38.790Z,100998.88
2022-08-04T12:40:27.576Z,101001.72
2022-08-04T12:43:08.896Z,101006.59
2022-08-04T12:45:36.652Z,100991.25
2022-08-04T12:48:05.307Z,100997.34
2022-08-04T12:50:33.242Z,100996.91
2022-08-04T12:53:02.649Z,100988.00
2022-08-04T12:55:31.878Z,100988.00
2022-08-04T12:58:00.170Z,100987.97
2022-08-04T13:00:40.549Z,100976.59
2022-08-04T13:03:11.533Z,100985.03
2022-08-04T13:05:41.093Z,100982.97
2022-08-04T13:08:10.179Z,100981.75
2022-08-04T13:10:39.568Z,100978.03
2022-08-04T13:13:12.263Z,100963.81
2022-08-04T13:15:46.987Z,100972.25
2022-08-04T13:18:28.837Z,100973.94
2022-08-04T13:21:19.254Z,100971.44
2022-08-04T13:24:09.372Z,100966.53
2022-08-04T13:26:44.848Z,100961.25
2022-08-04T13:29:23.354Z,100958.34
2022-08-04T13:32:11.151Z,100953.53
2022-08-04T13:34:41.032Z,100951.81
2022-08-04T13:37:20.981Z,100958.56
2022-08-04T13:39:55.981Z,100953.06
2022-08-04T13:42:25.999Z,100945.63
2022-08-04T13:44:59.680Z,100939.78
2022-08-04T13:47:34.177Z,100948.38
2022-08-04T13:50:26.267Z,100954.72
2022-08-04T13:52:54.687Z,100974.59
2022-08-04T13:55:33.656Z,100971.28
2022-08-04T13:58:10.666Z,100955.75
2022-08-04T14:00:49.127Z,100934.28
2022-08-04T14:03:53.865Z,100929.94
2022-08-04T14:06:29.532Z,100935.16
2022-08-04T14:08:58.980Z,100936.16
2022-08-04T14:12:10.424Z,100931.72
2022-08-04T14:14:30.175Z,100944.69
2022-08-04T14:17:00.672Z,100940.59
2022-08-04T14:19:35.850Z,100950.84
2022-08-04T14:22:03.304Z,100942.69
2022-08-04T14:24:29.850Z,100959.66
2022-08-04T14:27:00.597Z,100955.31
2022-08-04T14:29:38.103Z,100968.53
2022-08-04T14:32:13.894Z,100968.91
2022-08-04T14:34:45.291Z,100970.25
2022-08-04T14:37:20.577Z,100983.59
2022-08-04T14:40:17.256Z,100993.31
2022-08-04T14:42:54.552Z,100996.47
2022-08-04T14:45:31.787Z,100996.28
2022-08-04T14:47:59.465Z,101008.19
2022-08-04T14:50:38.066Z,101016.41
2022-08-04T14:53:17.413Z,101045.16
2022-08-04T14:55:46.829Z,101062.00
2022-08-04T14:58:32.630Z,101068.41
2022-08-04T15:01:09.772Z,101069.44
2022-08-04T15:03:51.060Z,101076.28
2022-08-04T15:06:26.905Z,101089.91
2022-08-04T15:08:56.999Z,101097.34
2022-08-04T15:11:24.410Z,101106.28
2022-08-04T15:13:52.870Z,101108.97
2022-08-04T15:16:21.013Z,101113.41
2022-08-04T15:18:49.234Z,101109.56
2022-08-04T15:21:17.176Z,101106.13
2022-08-04T15:23:44.074Z,101114.97
2022-08-04T15:26:17.562Z,101124.59
2022-08-04T15:28:52.707Z,101136.91
2022-08-04T15:32:06.621Z,101142.34
2022-08-04T15:34:09.422Z,101161.25
2022-08-04T15:36:57.246Z,101163.91
2022-08-04T15:39:38.605Z,101161.88
2022-08-04T15:42:32.310Z,101167.28
2022-08-04T15:45:05.592Z,101183.03
2022-08-04T15:47:32.319Z,101182.22
2022-08-04T15:50:06.113Z,101186.81
2022-08-04T15:53:10.019Z,101189.06
2022-08-04T15:55:39.924Z,101191.19
2022-08-04T15:58:11.873Z,101194.16
2022-08-04T16:00:56.687Z,101178.91
2022-08-04T16:03:59.022Z,101162.03
2022-08-04T16:06:28.829Z,101184.47
2022-08-04T16:09:01.928Z,101205.28
2022-08-04T16:11:32.761Z,101231.34
2022-08-04T16:13:59.818Z,101261.19
2022-08-04T16:16:39.496Z,101244.22
2022-08-04T16:19:18.264Z,101246.88
2022-08-04T16:21:53.316Z,101249.16
2022-08-04T16:24:19.833Z,101238.63
2022-08-04T16:26:54.279Z,101220.34
2022-08-04T16:29:22.538Z,101224.44
2022-08-04T16:32:04.213Z,101215.38
2022-08-04T16:34:49.713Z,101198.47
2022-08-04T16:37:18.110Z,101189.22
2022-08-04T16:39:50.219Z,101184.19
2022-08-04T16:42:30.410Z,101158.97
2022-08-04T16:45:09.276Z,101144.28
2022-08-04T16:47:48.078Z,101145.38
2022-08-04T16:50:20.556Z,101143.13
2022-08-04T16:52:49.708Z,101135.50
2022-08-04T16:55:22.036Z,101135.50
2022-08-04T16:57:54.141Z,101117.81
2022-08-04T17:00:33.001Z,101111.63
2022-08-04T17:03:02.880Z,101104.53
2022-08-04T17:05:38.767Z,101082.84
2022-08-04T17:08:29.101Z,101077.81
2022-08-04T17:10:54.242Z,101073.91
2022-08-04T17:14:03.883Z,101060.97
2022-08-04T17:16:25.497Z,101069.03
2022-08-04T17:18:54.344Z,101076.97
2022-08-04T17:21:27.869Z,101079.59
2022-08-04T17:24:12.663Z,101069.81
2022-08-04T17:26:45.358Z,101083.09
2022-08-04T17:29:19.777Z,101088.97
2022-08-04T17:31:47.095Z,101096.25
2022-08-04T17:34:19.574Z,101094.28
2022-08-04T17:36:47.494Z,101086.09
2022-08-04T17:39:19.484Z,101079.69
2022-08-04T17:41:48.936Z,101079.69
2022-08-04T17:44:16.743Z,101084.38
2022-08-04T17:46:45.688Z,101081.31
2022-08-04T17:49:17.790Z,101083.00
2022-08-04T17:52:03.995Z,101082.00
2022-08-04T17:54:36.485Z,101083.97
2022-08-04T17:57:19.923Z,101093.53
2022-08-04T17:59:57.917Z,101091.47
2022-08-04T18:02:33.192Z,101102.38
2022-08-04T18:05:06.777Z,101096.41
2022-08-04T18:08:37.980Z,101103.38
2022-08-04T18:10:57.042Z,101099.50
2022-08-04T18:13:28.196Z,101113.09
2022-08-04T18:16:05.138Z,101115.97
2022-08-04T18:18:31.973Z,101112.06
2022-08-04T18:26:35.144Z,101112.06
2022-08-04T18:29:03.425Z,101124.41
2022-08-04T18:31:31.617Z,101137.38
2022-08-04T18:34:02.408Z,101140.16
2022-08-04T18:36:36.557Z,101143.03
2022-08-04T18:39:13.600Z,101143.19
2022-08-04T18:42:00.860Z,101146.81
2022-08-04T18:44:31.324Z,101145.06
2022-08-04T18:47:19.369Z,101152.81
2022-08-04T18:51:01.837Z,101168.19
2022-08-04T18:52:33.225Z,101174.88
2022-08-04T18:55:01.836Z,101172.13
2022-08-04T18:57:59.807Z,101167.34
2022-08-04T19:00:19.829Z,101171.78
2022-08-04T19:02:47.521Z,101176.75
2022-08-04T19:05:17.630Z,101192.03
2022-08-04T19:08:01.702Z,101192.41
2022-08-04T19:10:29.457Z,101217.38
2022-08-04T19:12:56.102Z,101211.16
2022-08-04T19:15:22.688Z,101210.75
2022-08-04T19:18:01.335Z,101216.84
2022-08-04T19:20:29.609Z,101216.53
2022-08-04T19:24:26.423Z,101206.78
2022-08-04T19:25:59.019Z,101214.78
2022-08-04T19:28:34.343Z,101210.78
2022-08-04T19:31:06.854Z,101211.69
2022-08-04T19:33:58.557Z,101225.19
2022-08-04T19:36:27.750Z,101227.91
2022-08-04T19:38:57.855Z,101241.22
2022-08-04T19:41:26.586Z,101239.41
2022-08-04T19:43:54.482Z,101246.53
2022-08-04T19:46:24.748Z,101255.78
2022-08-04T19:48:59.114Z,101255.78
2022-08-04T19:51:29.586Z,101266.81
2022-08-04T19:54:04.196Z,101267.78
2022-08-04T19:56:48.652Z,101274.53
2022-08-04T19:59:15.309Z,101278.00
2022-08-04T20:04:29.375Z,101287.69
2022-08-04T20:06:58.118Z,101277.28
2022-08-04T20:09:27.075Z,101283.50
2022-08-04T20:11:58.286Z,101278.78
2022-08-04T20:14:32.142Z,101283.97
2022-08-04T20:17:10.282Z,101273.97
2022-08-04T20:19:51.360Z,101266.94
2022-08-04T20:22:52.880Z,101272.72
2022-08-04T20:25:10.993Z,101278.06
2022-08-04T20:28:00.662Z,101269.53
2022-08-04T20:30:31.146Z,101273.13
2022-08-04T20:32:58.266Z,101277.66
2022-08-04T20:38:33.282Z,101277.69
2022-08-04T20:41:00.287Z,101284.31
2022-08-04T20:43:28.169Z,101282.69
2022-08-04T20:45:59.668Z,101286.78
2022-08-04T20:48:29.822Z,101291.28
2022-08-04T20:51:00.462Z,101287.69
2022-08-04T20:53:32.484Z,101293.78
2022-08-04T20:56:19.032Z,101301.66
2022-08-04T20:58:56.936Z,101301.53
2022-08-04T21:01:29.427Z,101302.38
2022-08-04T21:04:14.887Z,101304.03
2022-08-04T21:06:55.390Z,101296.28
2022-08-04T21:09:37.573Z,101301.03
2022-08-04T21:12:08.966Z,101312.94
2022-08-04T21:14:36.170Z,101309.63
2022-08-04T21:17:03.981Z,101303.00
2022-08-04T21:19:33.940Z,101305.47
2022-08-04T21:22:06.846Z,101302.16
2022-08-04T21:24:37.513Z,101301.06
2022-08-04T21:27:06.382Z,101303.56
2022-08-04T21:29:36.627Z,101303.28
2022-08-04T21:32:05.949Z,101301.38
2022-08-04T21:34:37.954Z,101292.50
2022-08-04T21:37:05.857Z,101290.06
2022-08-04T21:39:32.872Z,101284.53
2022-08-04T21:42:27.932Z,101290.25
2022-08-04T21:45:05.090Z,101286.44
2022-08-04T21:47:45.947Z,101296.72
2022-08-04T21:50:13.489Z,101294.22
2022-08-04T21:52:46.967Z,101297.81
2022-08-04T21:55:13.496Z,101297.81
2022-08-04T21:57:42.044Z,101303.94
2022-08-04T22:00:10.857Z,101300.63
2022-08-04T22:02:44.833Z,101301.19
2022-08-04T22:05:11.823Z,101294.28
2022-08-04T22:07:50.050Z,101303.97
2022-08-04T22:10:22.525Z,101297.03
2022-08-04T22:13:00.188Z,101304.25
2022-08-04T22:16:03.589Z,101308.66
2022-08-04T22:18:20.382Z,101304.25
2022-08-04T22:20:51.335Z,101303.94
2022-08-04T22:23:19.337Z,101312.25
2022-08-04T22:25:55.686Z,101308.94
2022-08-04T22:28:22.550Z,101308.09
2022-08-04T22:30:53.564Z,101307.81
2022-08-04T22:33:22.751Z,101307.81
2022-08-04T22:35:50.009Z,101305.06
2022-08-04T22:38:28.149Z,101300.91
2022-08-04T22:41:12.558Z,101292.94
2022-08-04T22:43:40.202Z,101299.53
2022-08-04T22:46:11.924Z,101291.25
2022-08-04T22:48:43.388Z,101292.38
2022-08-04T22:51:12.895Z,101299.25
2022-08-04T22:53:39.958Z,101294.59
2022-08-04T22:56:10.813Z,101301.22
2022-08-04T22:58:45.445Z,101309.19
2022-08-04T23:01:17.240Z,101319.13
2022-08-04T23:03:54.945Z,101323.53
2022-08-04T23:06:24.560Z,101308.38
2022-08-04T23:08:51.824Z,101317.72
2022-08-04T23:11:18.428Z,101327.69
2022-08-04T23:13:45.492Z,101323.78
2022-08-04T23:16:13.961Z,101318.56
2022-08-04T23:18:41.988Z,101319.66
2022-08-04T23:21:10.042Z,101328.19
2022-08-04T23:23:38.124Z,101330.34
2022-08-04T23:26:14.279Z,101332.47
2022-08-04T23:28:42.120Z,101337.25
2022-08-04T23:31:10.207Z,101340.25
2022-08-04T23:33:50.960Z,101336.88
2022-08-04T23:36:26.291Z,101342.91
2022-08-04T23:39:04.114Z,101336.88
2022-08-04T23:41:54.670Z,101341.81
2022-08-04T23:44:24.690Z,101341.81
2022-08-04T23:47:02.821Z,101352.34
2022-08-04T23:49:44.229Z,101355.59
2022-08-04T23:52:28.319Z,101359.47
2022-08-04T23:54:58.361Z,101360.66
2022-08-04T23:57:25.499Z,101352.34
2022-08-04T23:59:58.610Z,101361.13
